Pintail — WDF5177 — position and weather

sailwx.info

Track history (hours):
 
Tides and Currents Weather Stations Pressure Air Temp Water Temp Dewpoint Dewpoint Depression Visibility Wind Speed Wind Dir Waves Ship Positions

Pintail

Owner: Pintail Marine Services, Inc, Friday Harbor, WA. More information available from US FCC via Universal Licensing System and Coast Guard Vessel Documentation Center.

Last reported at 2018-Feb-21 19:25 UTC. Time now 2018-Feb-21 19:47 UTC.
Position N 48°32' W 122°60'.

Length 19 m.

Type: Towing. MMSI: 367460260.

Date/timePositionNaut miles runAvg speedWind from/ knotsBaromVisibWave heightAir tempDewpointWater temp
2018-Feb-21 19:25N 48°32' W 122°60'0 0.2
2018-Feb-21 18:55N 48°32' W 123°00'1 1.8
2018-Feb-21 18:30N 48°32' W 122°59'3 6.0
2018-Feb-21 18:00N 48°33' W 122°55'3 5.2
2018-Feb-21 17:28N 48°33' W 122°51'3 6.2
2018-Feb-21 17:00N 48°32' W 122°48'6 6.2
2018-Feb-21 16:02N 48°31' W 122°38'0 6.2
2018-Feb-21 15:59N 48°31' W 122°38'1 2.1
2018-Feb-21 15:26N 48°31' W 122°36'0 0.0
2018-Feb-21 14:56N 48°31' W 122°36'0 0.0
2018-Feb-21 14:26N 48°31' W 122°36'3 5.7
2018-Feb-21 13:59N 48°31' W 122°40'4 6.8
2018-Feb-21 13:24N 48°31' W 122°46'2 5.9
2018-Feb-21 13:00N 48°32' W 122°50'3 6.4
2018-Feb-21 12:30N 48°34' W 122°53'3 6.9
2018-Feb-21 12:00N 48°32' W 122°57'2 3.7
2018-Feb-21 11:28N 48°32' W 122°60'0 0.0
2018-Feb-21 10:59N 48°32' W 122°60'0 0.0
2018-Feb-21 10:26N 48°32' W 122°60'0 0.0
2018-Feb-21 09:59N 48°32' W 122°60'0 0.0
2018-Feb-21 09:29N 48°32' W 122°60'0 0.0
2018-Feb-21 08:59N 48°32' W 122°60'0 0.0
2018-Feb-21 08:28N 48°32' W 122°60'0 0.0
2018-Feb-21 07:58N 48°32' W 122°60'0 0.0
2018-Feb-21 07:28N 48°32' W 122°60'0 0.0
2018-Feb-21 06:58N 48°32' W 122°60'0 0.0
2018-Feb-21 06:29N 48°32' W 122°60'0 0.0
2018-Feb-21 05:55N 48°32' W 122°60'0 0.0
2018-Feb-21 05:28N 48°32' W 122°60'0 0.0
2018-Feb-21 04:58N 48°32' W 122°60'0 0.0
2018-Feb-21 04:28N 48°32' W 122°60'0 0.0
2018-Feb-21 03:55N 48°32' W 122°60'0 0.0
2018-Feb-21 03:28N 48°32' W 122°60'0 0.0
2018-Feb-21 02:58N 48°32' W 122°60'0 0.0
2018-Feb-21 02:25N 48°32' W 122°60'0 0.0
2018-Feb-21 01:55N 48°32' W 122°60'0 0.0
2018-Feb-21 01:26N 48°32' W 122°60'0 0.0
2018-Feb-21 00:56N 48°32' W 122°60'0 0.0
2018-Feb-21 00:29N 48°32' W 122°60'0 0.0
2018-Feb-20 23:59N 48°32' W 122°60'0 0.0
2018-Feb-20 23:30N 48°32' W 122°60'1 1.1
2018-Feb-20 23:00N 48°32' W 122°60'5 5.3
2018-Feb-20 22:02N 48°37' W 123°00'0 0.0
2018-Feb-20 21:50N 48°37' W 123°00'0 0.7
2018-Feb-20 21:08N 48°37' W 123°00'0 0.1
2018-Feb-20 17:03N 48°37' W 123°00'0 1.1
2018-Feb-20 16:59N 48°37' W 123°00'3 6.0
2018-Feb-20 16:25N 48°34' W 123°01'2 5.2
2018-Feb-20 15:57N 48°32' W 123°00'0 0.2
2018-Feb-20 15:28N 48°32' W 122°60'0 0.0
2018-Feb-20 14:58N 48°32' W 122°60'0 0.0
2018-Feb-20 14:28N 48°32' W 122°60'0 0.0
2018-Feb-20 13:58N 48°32' W 122°60'0 0.0
2018-Feb-20 13:28N 48°32' W 122°60'0 0.0
2018-Feb-20 12:58N 48°32' W 122°60'0 0.0
2018-Feb-20 12:28N 48°32' W 122°60'0 0.0
2018-Feb-20 11:49N 48°32' W 122°60'0 0.0
2018-Feb-20 11:28N 48°32' W 122°60'0 0.0
2018-Feb-20 10:58N 48°32' W 122°60'0 0.0
2018-Feb-20 10:28N 48°32' W 122°60'0 0.0
2018-Feb-20 09:58N 48°32' W 122°60'0 0.0
2018-Feb-20 09:28N 48°32' W 122°60'0 0.0
2018-Feb-20 08:58N 48°32' W 122°60'0 0.0
2018-Feb-20 08:28N 48°32' W 122°60'0 0.0
2018-Feb-20 07:58N 48°32' W 122°60'0 0.0
2018-Feb-20 07:28N 48°32' W 122°60'0 0.0
2018-Feb-20 06:58N 48°32' W 122°60'0 0.0
2018-Feb-20 06:25N 48°32' W 122°60'0 0.0
2018-Feb-20 05:58N 48°32' W 122°60'0 0.0
2018-Feb-20 05:28N 48°32' W 122°60'0 0.0
2018-Feb-20 04:58N 48°32' W 122°60'0 0.0
2018-Feb-20 04:28N 48°32' W 122°60'0 0.0
2018-Feb-20 03:58N 48°32' W 122°60'0 0.0
2018-Feb-20 03:28N 48°32' W 122°60'0 0.0
2018-Feb-20 02:58N 48°32' W 122°60'0 0.0
2018-Feb-20 02:28N 48°32' W 122°60'0 0.0
2018-Feb-20 01:58N 48°32' W 122°60'0 0.0
2018-Feb-20 01:28N 48°32' W 122°60'0 0.0
2018-Feb-20 00:58N 48°32' W 122°60'0 0.0
2018-Feb-20 00:28N 48°32' W 122°60'0 0.0
2018-Feb-19 23:58N 48°32' W 122°60'0 0.0
2018-Feb-19 23:22N 48°32' W 122°60'0 0.0
2018-Feb-19 22:55N 48°32' W 122°60'0 0.0
2018-Feb-19 22:25N 48°32' W 122°60'0 0.0
2018-Feb-19 21:58N 48°32' W 122°60'0 0.0
2018-Feb-19 21:16N 48°32' W 122°60'0 0.0
2018-Feb-19 20:58N 48°32' W 122°60'0 0.0
2018-Feb-19 20:22N 48°32' W 122°60'0 0.0
2018-Feb-19 19:58N 48°32' W 122°60'0 0.0
2018-Feb-19 19:28N 48°32' W 122°60'0 0.0
2018-Feb-19 18:58N 48°32' W 122°60'0 0.0
2018-Feb-19 18:28N 48°32' W 122°60'0 0.0
2018-Feb-19 17:58N 48°32' W 122°60'0 0.0
2018-Feb-19 17:28N 48°32' W 122°60'0 0.0
2018-Feb-19 16:58N 48°32' W 122°60'0 0.0
2018-Feb-19 16:28N 48°32' W 122°60'0 0.0
2018-Feb-19 15:58N 48°32' W 122°60'0 0.0
2018-Feb-19 15:28N 48°32' W 122°60'0 0.0
2018-Feb-19 14:58N 48°32' W 122°60'0 0.0
2018-Feb-19 14:19N 48°32' W 122°60'0 0.0
2018-Feb-19 13:58N 48°32' W 122°60'0 0.0
2018-Feb-19 13:28N 48°32' W 122°60'0 0.0
2018-Feb-19 12:58N 48°32' W 122°60'0 0.0
2018-Feb-19 12:28N 48°32' W 122°60'0 0.0
2018-Feb-19 11:58N 48°32' W 122°60'0 0.0
2018-Feb-19 11:28N 48°32' W 122°60'0 0.0
2018-Feb-19 10:58N 48°32' W 122°60'0 0.0
2018-Feb-19 10:28N 48°32' W 122°60'0 0.0
2018-Feb-19 09:58N 48°32' W 122°60'0 0.0
2018-Feb-19 09:28N 48°32' W 122°60'0 0.0
2018-Feb-19 08:56N 48°32' W 122°60'0 0.0
2018-Feb-19 08:23N 48°32' W 122°60'0 0.0
2018-Feb-19 07:56N 48°32' W 122°60'0 0.0
2018-Feb-19 07:23N 48°32' W 122°60'0 0.0
2018-Feb-19 06:59N 48°32' W 122°60'0 0.0
2018-Feb-19 06:29N 48°32' W 122°60'0 0.0
2018-Feb-19 05:47N 48°32' W 122°60'0 0.0
2018-Feb-19 05:26N 48°32' W 122°60'0 0.0
2018-Feb-19 04:59N 48°32' W 122°60'0 0.0
2018-Feb-19 04:29N 48°32' W 122°60'0 0.0
2018-Feb-19 03:56N 48°32' W 122°60'0 0.0
2018-Feb-19 03:29N 48°32' W 122°60'0 0.0
2018-Feb-19 02:59N 48°32' W 122°60'0 0.0
2018-Feb-19 02:26N 48°32' W 122°60'0 0.0
2018-Feb-19 01:56N 48°32' W 122°60'0 0.0
2018-Feb-19 01:29N 48°32' W 122°60'0 0.0
2018-Feb-19 00:59N 48°32' W 122°60'0 0.0
2018-Feb-19 00:23N 48°32' W 122°60'0 0.0
2018-Feb-18 23:56N 48°32' W 122°60'0 0.0
2018-Feb-18 23:29N 48°32' W 122°60'0 0.0
2018-Feb-18 22:59N 48°32' W 122°60'0 0.0
2018-Feb-18 22:29N 48°32' W 122°60'0 0.0
2018-Feb-18 21:59N 48°32' W 122°60'0 0.0
2018-Feb-18 21:29N 48°32' W 122°60'0 0.0
2018-Feb-18 20:59N 48°32' W 122°60'0 0.0
2018-Feb-18 20:29N 48°32' W 122°60'0 0.0
2018-Feb-18 19:59N 48°32' W 122°60'0 0.0
2018-Feb-18 19:29N 48°32' W 122°60'0 0.0
2018-Feb-18 18:59N 48°32' W 122°60'0 0.0
2018-Feb-18 18:29N 48°32' W 122°60'0 0.0
2018-Feb-18 17:59N 48°32' W 122°60'0 0.0
2018-Feb-18 17:29N 48°32' W 122°60'0 0.0
2018-Feb-18 16:59N 48°32' W 122°60'0 0.0
2018-Feb-18 16:29N 48°32' W 122°60'0 0.0
2018-Feb-18 15:59N 48°32' W 122°60'0 0.0
2018-Feb-18 15:29N 48°32' W 122°60'0 0.0
2018-Feb-18 14:59N 48°32' W 122°60'0 0.0
2018-Feb-18 14:29N 48°32' W 122°60'0 0.0
2018-Feb-18 13:59N 48°32' W 122°60'0 0.0
2018-Feb-18 13:29N 48°32' W 122°60'0 0.0
2018-Feb-18 12:59N 48°32' W 122°60'0 0.0
2018-Feb-18 12:29N 48°32' W 122°60'0 0.0
2018-Feb-18 11:59N 48°32' W 122°60'0 0.0
2018-Feb-18 11:29N 48°32' W 122°60'0 0.0
2018-Feb-18 10:59N 48°32' W 122°60'0 0.0
2018-Feb-18 10:29N 48°32' W 122°60'0 0.0
2018-Feb-18 09:59N 48°32' W 122°60'0 0.0
2018-Feb-18 09:29N 48°32' W 122°60'0 0.0
2018-Feb-18 08:59N 48°32' W 122°60'0 0.0
2018-Feb-18 08:29N 48°32' W 122°60'0 0.0
2018-Feb-18 07:59N 48°32' W 122°60'0 0.0
2018-Feb-18 07:29N 48°32' W 122°60'0 0.0
2018-Feb-18 06:59N 48°32' W 122°60'0 0.0
2018-Feb-18 06:29N 48°32' W 122°60'0 0.0
2018-Feb-18 05:59N 48°32' W 122°60'0 0.0
2018-Feb-18 05:29N 48°32' W 122°60'0 0.0
2018-Feb-18 04:59N 48°32' W 122°60'0 0.0
2018-Feb-18 04:29N 48°32' W 122°60'0 0.0
2018-Feb-18 03:59N 48°32' W 122°60'0 0.0
2018-Feb-18 03:29N 48°32' W 122°60'0 0.0
2018-Feb-18 02:59N 48°32' W 122°60'0 0.0
2018-Feb-18 02:26N 48°32' W 122°60'0 0.0
2018-Feb-18 01:59N 48°32' W 122°60'0 0.0
2018-Feb-18 01:29N 48°32' W 122°60'0 0.0
2018-Feb-18 00:59N 48°32' W 122°60'0 0.0
2018-Feb-18 00:29N 48°32' W 122°60'0 0.0
2018-Feb-17 23:59N 48°32' W 122°60'0 0.0
2018-Feb-17 23:29N 48°32' W 122°60'0 0.0
2018-Feb-17 22:59N 48°32' W 122°60'0 0.0
2018-Feb-17 22:29N 48°32' W 122°60'0 0.0
2018-Feb-17 21:59N 48°32' W 122°60'0 0.0
2018-Feb-17 21:29N 48°32' W 122°60'0 0.0
2018-Feb-17 20:59N 48°32' W 122°60'0 0.0
2018-Feb-17 20:29N 48°32' W 122°60'0 0.0
2018-Feb-17 19:59N 48°32' W 122°60'0 0.0
2018-Feb-17 19:29N 48°32' W 122°60'0 0.0
2018-Feb-17 18:50N 48°32' W 122°60'0 0.0
2018-Feb-17 18:29N 48°32' W 122°60'0 0.0
2018-Feb-17 17:59N 48°32' W 122°60'0 0.0
2018-Feb-17 17:29N 48°32' W 122°60'0 0.0
2018-Feb-17 16:59N 48°32' W 122°60'0 0.0
2018-Feb-17 16:26N 48°32' W 122°60'0 0.0
2018-Feb-17 15:59N 48°32' W 122°60'0 0.0
2018-Feb-17 15:29N 48°32' W 122°60'0 0.0
2018-Feb-17 14:59N 48°32' W 122°60'0 0.0
2018-Feb-17 14:29N 48°32' W 122°60'0 0.0
2018-Feb-17 13:59N 48°32' W 122°60'0 0.0
2018-Feb-17 13:29N 48°32' W 122°60'0 0.0
2018-Feb-17 12:59N 48°32' W 122°60'0 0.0
2018-Feb-17 12:29N 48°32' W 122°60'0 0.0
2018-Feb-17 11:59N 48°32' W 122°60'0 0.0
2018-Feb-17 11:29N 48°32' W 122°60'0 0.0
2018-Feb-17 10:59N 48°32' W 122°60'0 0.0
2018-Feb-17 10:29N 48°32' W 122°60'0 0.0
2018-Feb-17 09:53N 48°32' W 122°60'0 0.0
2018-Feb-17 09:29N 48°32' W 122°60'0 0.0
2018-Feb-17 08:59N 48°32' W 122°60'0 0.0
2018-Feb-17 08:29N 48°32' W 122°60'0 0.0
2018-Feb-17 07:59N 48°32' W 122°60'0 0.0
2018-Feb-17 07:29N 48°32' W 122°60'0 0.0
2018-Feb-17 06:59N 48°32' W 122°60'0 0.0
2018-Feb-17 06:29N 48°32' W 122°60'0 0.0
2018-Feb-17 05:59N 48°32' W 122°60'0 0.0
2018-Feb-17 05:29N 48°32' W 122°60'0 0.0
2018-Feb-17 04:59N 48°32' W 122°60'0 0.0
2018-Feb-17 04:29N 48°32' W 122°60'0 0.0
2018-Feb-17 03:59N 48°32' W 122°60'0 0.0
2018-Feb-17 03:29N 48°32' W 122°60'0 0.0
2018-Feb-17 02:59N 48°32' W 122°60'0 0.0
2018-Feb-17 02:29N 48°32' W 122°60'0 0.0
2018-Feb-17 01:59N 48°32' W 122°60'0 0.0
2018-Feb-17 01:29N 48°32' W 122°60'0 0.0
2018-Feb-17 00:59N 48°32' W 122°60'0 0.0
2018-Feb-17 00:29N 48°32' W 122°60'0 0.0
2018-Feb-16 23:59N 48°32' W 122°60'0 0.0
2018-Feb-16 23:29N 48°32' W 122°60'0 0.0
2018-Feb-16 22:56N 48°32' W 122°60'0 0.0
2018-Feb-16 22:29N 48°32' W 122°60'0 0.0
2018-Feb-16 21:59N 48°32' W 122°60'0 0.0
2018-Feb-16 21:29N 48°32' W 122°60'0 0.0
2018-Feb-16 21:00N 48°32' W 122°60'1 2.1
2018-Feb-16 20:30N 48°32' W 122°59'3 6.0
2018-Feb-16 20:00N 48°34' W 122°55'2 4.9
2018-Feb-16 19:30N 48°33' W 122°51'3 5.5
2018-Feb-16 18:59N 48°32' W 122°47'3 6.2
2018-Feb-16 18:28N 48°32' W 122°42'3 7.4
2018-Feb-16 18:00N 48°31' W 122°37'1 2.1
2018-Feb-16 17:30N 48°31' W 122°36'0 0.8
2018-Feb-16 16:59N 48°31' W 122°36'0 0.0
2018-Feb-16 16:23N 48°31' W 122°36'0 0.0
2018-Feb-16 15:59N 48°31' W 122°36'0 0.0
2018-Feb-16 15:26N 48°31' W 122°36'0 0.0
2018-Feb-16 14:56N 48°31' W 122°36'0 0.0
2018-Feb-16 14:29N 48°31' W 122°36'0 0.0
2018-Feb-16 13:59N 48°31' W 122°36'0 0.0
2018-Feb-16 13:29N 48°31' W 122°36'0 0.0
2018-Feb-16 12:53N 48°31' W 122°36'0 0.0
2018-Feb-16 12:29N 48°31' W 122°36'0 0.0
2018-Feb-16 11:59N 48°31' W 122°36'0 0.0
2018-Feb-16 11:29N 48°31' W 122°36'0 0.0
2018-Feb-16 10:59N 48°31' W 122°36'0 0.0
2018-Feb-16 10:23N 48°31' W 122°36'0 0.0
2018-Feb-16 09:59N 48°31' W 122°36'0 0.0
2018-Feb-16 09:29N 48°31' W 122°36'0 0.0
2018-Feb-16 08:59N 48°31' W 122°36'0 0.0
2018-Feb-16 08:29N 48°31' W 122°36'0 0.0
2018-Feb-16 07:59N 48°31' W 122°36'0 0.0
2018-Feb-16 07:29N 48°31' W 122°36'0 0.0
2018-Feb-16 06:59N 48°31' W 122°36'0 0.0
2018-Feb-16 06:29N 48°31' W 122°36'0 0.0
2018-Feb-16 05:53N 48°31' W 122°36'0 0.0
2018-Feb-16 05:29N 48°31' W 122°36'0 0.0
2018-Feb-16 04:53N 48°31' W 122°36'0 0.0
2018-Feb-16 04:29N 48°31' W 122°36'0 0.0
2018-Feb-16 03:59N 48°31' W 122°36'0 0.0
2018-Feb-16 03:23N 48°31' W 122°36'0 0.0
2018-Feb-16 02:53N 48°31' W 122°36'0 0.0
2018-Feb-16 02:29N 48°31' W 122°36'0 0.0
2018-Feb-16 01:59N 48°31' W 122°36'0 0.0
2018-Feb-16 01:23N 48°31' W 122°36'0 0.0
2018-Feb-16 00:47N 48°31' W 122°36'0 0.0
2018-Feb-16 00:29N 48°31' W 122°36'0 0.0
2018-Feb-15 23:47N 48°31' W 122°36'1 1.3
2018-Feb-15 23:19N 48°31' W 122°36'4 7.0
2018-Feb-15 22:44N 48°32' W 122°42'3 6.5
2018-Feb-15 22:19N 48°32' W 122°47'2 6.5
2018-Feb-15 22:00N 48°32' W 122°50'3 6.4
2018-Feb-15 21:30N 48°34' W 122°53'4 6.9
2018-Feb-15 20:59N 48°32' W 122°58'2 3.3
2018-Feb-15 20:29N 48°32' W 123°00'0 0.2
2018-Feb-15 19:59N 48°32' W 122°60'0 0.0
2018-Feb-15 19:30N 48°32' W 122°60'0 0.0
2018-Feb-15 19:00N 48°32' W 122°60'0 0.0
2018-Feb-15 18:30N 48°32' W 122°60'0 0.5
2018-Feb-15 18:00N 48°32' W 122°60'3 6.0
2018-Feb-15 17:30N 48°33' W 122°56'3 5.5
2018-Feb-15 17:00N 48°34' W 122°52'3 6.0
2018-Feb-15 16:30N 48°32' W 122°48'3 6.7
2018-Feb-15 16:00N 48°32' W 122°43'4 7.1
2018-Feb-15 15:28N 48°31' W 122°37'1 1.1
2018-Feb-15 15:00N 48°31' W 122°36'2 0.4
2018-Feb-15 11:08N 48°31' W 122°39'0 0.0
2018-Feb-15 05:38N 48°31' W 122°39'0 0.0
2018-Feb-15 05:20N 48°31' W 122°39'0 0.0
2018-Feb-15 04:56N 48°31' W 122°39'0 0.0
2018-Feb-15 04:26N 48°31' W 122°39'0 0.0
2018-Feb-15 03:55N 48°31' W 122°39'0 0.0
2018-Feb-15 03:25N 48°31' W 122°39'0 0.4
2018-Feb-15 02:18N 48°31' W 122°39'3 5.2
2018-Feb-15 01:45N 48°32' W 122°43'2 6.5
2018-Feb-15 01:30N 48°32' W 122°46'3 6.6
2018-Feb-15 01:00N 48°33' W 122°51'3 5.3
2018-Feb-15 00:30N 48°34' W 122°54'3 6.6
2018-Feb-15 00:00N 48°32' W 122°59'1 1.9
2018-Feb-14 23:29N 48°32' W 122°60'0 0.0
2018-Feb-14 22:59N 48°32' W 122°60'0 0.0
2018-Feb-14 22:29N 48°32' W 122°60'0 0.0
2018-Feb-14 21:59N 48°32' W 122°60'0 0.0
2018-Feb-14 21:29N 48°32' W 122°60'0 0.0
2018-Feb-14 20:59N 48°32' W 122°60'0 0.0
2018-Feb-14 20:29N 48°32' W 122°60'0 0.0
2018-Feb-14 19:59N 48°32' W 122°60'0 0.0
2018-Feb-14 19:29N 48°32' W 122°60'0 0.0
2018-Feb-14 18:56N 48°32' W 122°60'0 0.0
2018-Feb-14 18:29N 48°32' W 122°60'0 0.0
2018-Feb-14 17:59N 48°32' W 122°60'0 0.0
2018-Feb-14 17:29N 48°32' W 122°60'0 0.0
2018-Feb-14 16:59N 48°32' W 122°60'0 0.0
2018-Feb-14 16:29N 48°32' W 122°60'0 0.0
2018-Feb-14 15:59N 48°32' W 122°60'0 0.0
2018-Feb-14 15:30N 48°32' W 122°60'0 0.0
2018-Feb-14 14:59N 48°32' W 122°60'0 0.0
2018-Feb-14 14:30N 48°32' W 122°60'0 0.0
2018-Feb-14 13:59N 48°32' W 122°60'0 0.0
2018-Feb-14 13:29N 48°32' W 122°60'0 0.0
2018-Feb-14 12:59N 48°32' W 122°60'0 0.0
2018-Feb-14 12:29N 48°32' W 122°60'0 0.0
2018-Feb-14 11:59N 48°32' W 122°60'0 0.0
2018-Feb-14 11:29N 48°32' W 122°60'0 0.0
2018-Feb-14 10:59N 48°32' W 122°60'0 0.0
2018-Feb-14 10:29N 48°32' W 122°60'0 0.0
2018-Feb-14 09:56N 48°32' W 122°60'0 0.0
2018-Feb-14 09:29N 48°32' W 122°60'0 0.0
2018-Feb-14 08:59N 48°32' W 122°60'0 0.0
2018-Feb-14 08:29N 48°32' W 122°60'0 0.0
2018-Feb-14 08:00N 48°32' W 122°60'0 0.0
2018-Feb-14 07:30N 48°32' W 122°60'0 0.0
2018-Feb-14 07:00N 48°32' W 122°60'0 0.0
2018-Feb-14 06:29N 48°32' W 122°60'0 0.0
2018-Feb-14 05:59N 48°32' W 122°60'0 0.0
2018-Feb-14 05:29N 48°32' W 122°60'0 0.0
2018-Feb-14 04:59N 48°32' W 122°60'0 0.0
2018-Feb-14 04:29N 48°32' W 122°60'0 0.0
2018-Feb-14 03:56N 48°32' W 122°60'0 0.0
2018-Feb-14 03:26N 48°32' W 122°60'0 0.0
2018-Feb-14 02:59N 48°32' W 122°60'0 0.0
2018-Feb-14 02:29N 48°32' W 122°60'0 0.0
2018-Feb-14 01:59N 48°32' W 122°60'0 0.0
2018-Feb-14 01:29N 48°32' W 122°60'0 0.0
2018-Feb-14 00:59N 48°32' W 122°60'0 0.0
2018-Feb-14 00:30N 48°32' W 122°60'0 0.1
2018-Feb-14 00:00N 48°32' W 122°60'1 0.9
2018-Feb-13 23:20N 48°32' W 123°01'0 0.0
2018-Feb-13 23:00N 48°32' W 123°01'1 1.2
2018-Feb-13 22:28N 48°32' W 123°00'1 1.3
2018-Feb-13 21:59N 48°32' W 123°01'0 0.0
2018-Feb-13 21:29N 48°32' W 123°01'0 0.0
2018-Feb-13 20:59N 48°32' W 123°01'1 1.1
2018-Feb-13 20:30N 48°32' W 122°60'0 0.3
2018-Feb-13 20:00N 48°32' W 122°60'0 0.1
2018-Feb-13 19:29N 48°32' W 122°60'0 0.0
2018-Feb-13 18:59N 48°32' W 122°60'0 0.0
2018-Feb-13 18:29N 48°32' W 122°60'0 0.0
2018-Feb-13 17:59N 48°32' W 122°60'0 0.0
2018-Feb-13 17:29N 48°32' W 122°60'0 0.0
2018-Feb-13 16:59N 48°32' W 122°60'0 0.0
2018-Feb-13 16:29N 48°32' W 122°60'0 0.0
2018-Feb-13 15:59N 48°32' W 122°60'0 0.0
2018-Feb-13 15:29N 48°32' W 122°60'0 0.0
2018-Feb-13 14:59N 48°32' W 122°60'0 0.0
2018-Feb-13 14:29N 48°32' W 122°60'0 0.0
2018-Feb-13 13:59N 48°32' W 122°60'0 0.0
2018-Feb-13 13:29N 48°32' W 122°60'0 0.0
2018-Feb-13 12:59N 48°32' W 122°60'0 0.0
2018-Feb-13 12:29N 48°32' W 122°60'0 0.0
2018-Feb-13 11:59N 48°32' W 122°60'0 0.0
2018-Feb-13 11:29N 48°32' W 122°60'0 0.0
2018-Feb-13 10:59N 48°32' W 122°60'0 0.0
2018-Feb-13 10:29N 48°32' W 122°60'0 0.0
2018-Feb-13 09:59N 48°32' W 122°60'0 0.0
2018-Feb-13 09:29N 48°32' W 122°60'0 0.0
2018-Feb-13 08:59N 48°32' W 122°60'0 0.0
2018-Feb-13 08:23N 48°32' W 122°60'0 0.0
2018-Feb-13 07:59N 48°32' W 122°60'0 0.0
2018-Feb-13 07:29N 48°32' W 122°60'0 0.0
2018-Feb-13 06:59N 48°32' W 122°60'0 0.0
2018-Feb-13 06:30N 48°32' W 122°60'0 0.0
2018-Feb-13 05:59N 48°32' W 122°60'0 0.0
2018-Feb-13 05:30N 48°32' W 122°60'0 0.0
2018-Feb-13 04:59N 48°32' W 122°60'0 0.0
2018-Feb-13 04:29N 48°32' W 122°60'0 0.0
2018-Feb-13 03:59N 48°32' W 122°60'0 0.0
2018-Feb-13 03:29N 48°32' W 122°60'0 0.0
2018-Feb-13 02:59N 48°32' W 122°60'0 0.0
2018-Feb-13 02:29N 48°32' W 122°60'0 0.0
2018-Feb-13 01:59N 48°32' W 122°60'0 0.0
2018-Feb-13 01:29N 48°32' W 122°60'0 0.0
2018-Feb-13 00:53N 48°32' W 122°60'0 0.0
2018-Feb-13 00:29N 48°32' W 122°60'0 0.0
2018-Feb-12 23:56N 48°32' W 122°60'0 0.0
2018-Feb-12 23:29N 48°32' W 122°60'0 0.0
2018-Feb-12 22:59N 48°32' W 122°60'0 0.0
2018-Feb-12 22:28N 48°32' W 122°60'0 0.0
2018-Feb-12 21:58N 48°32' W 122°60'0 0.0
2018-Feb-12 21:29N 48°32' W 122°60'0 0.0
2018-Feb-12 20:58N 48°32' W 122°60'0 0.2
2018-Feb-12 20:29N 48°32' W 123°00'3 5.2
2018-Feb-12 20:01N 48°33' W 122°57'3 6.1
2018-Feb-12 19:30N 48°34' W 122°53'3 6.6
2018-Feb-12 19:00N 48°32' W 122°49'3 6.5
2018-Feb-12 18:28N 48°32' W 122°44'4 7.0
2018-Feb-12 17:56N 48°31' W 122°38'1 2.1
2018-Feb-12 17:21N 48°31' W 122°36'2 4.4
2018-Feb-12 16:59N 48°32' W 122°39'3 5.8
2018-Feb-12 16:30N 48°32' W 122°43'4 7.2
2018-Feb-12 16:00N 48°35' W 122°46'2 3.2
2018-Feb-12 15:18N 48°35' W 122°50'2 5.6
2018-Feb-12 15:00N 48°35' W 122°52'3 5.6
2018-Feb-12 14:30N 48°33' W 122°56'3 6.2
2018-Feb-12 14:00N 48°32' W 122°60'0 0.1
2018-Feb-12 13:29N 48°32' W 122°60'0 0.0
2018-Feb-12 12:56N 48°32' W 122°60'0 0.0
2018-Feb-12 12:29N 48°32' W 122°60'0 0.0
2018-Feb-12 11:59N 48°32' W 122°60'0 0.0
2018-Feb-12 11:29N 48°32' W 122°60'0 0.0
2018-Feb-12 10:59N 48°32' W 122°60'0 0.0
2018-Feb-12 10:29N 48°32' W 122°60'0 0.0
2018-Feb-12 09:59N 48°32' W 122°60'0 0.0
2018-Feb-12 09:29N 48°32' W 122°60'0 0.0
2018-Feb-12 08:56N 48°32' W 122°60'0 0.0
2018-Feb-12 08:29N 48°32' W 122°60'0 0.0
2018-Feb-12 07:59N 48°32' W 122°60'0 0.0
2018-Feb-12 07:23N 48°32' W 122°60'0 0.0
2018-Feb-12 07:00N 48°32' W 122°60'0 0.0
2018-Feb-12 06:26N 48°32' W 122°60'0 0.0
2018-Feb-12 06:00N 48°32' W 122°60'0 0.0
2018-Feb-12 05:30N 48°32' W 122°60'0 0.0
2018-Feb-12 04:56N 48°32' W 122°60'0 0.0
2018-Feb-12 04:29N 48°32' W 122°60'0 0.0
2018-Feb-12 03:59N 48°32' W 122°60'0 0.0
2018-Feb-12 03:29N 48°32' W 122°60'0 0.0
2018-Feb-12 02:59N 48°32' W 122°60'0 0.0
2018-Feb-12 02:29N 48°32' W 122°60'0 0.0
2018-Feb-12 01:59N 48°32' W 122°60'0 0.0
2018-Feb-12 01:29N 48°32' W 122°60'0 0.0
2018-Feb-12 00:59N 48°32' W 122°60'0 0.0
2018-Feb-12 00:29N 48°32' W 122°60'0 0.0
2018-Feb-11 23:59N 48°32' W 122°60'0 0.0
2018-Feb-11 23:29N 48°32' W 122°60'0 0.0
2018-Feb-11 23:00N 48°32' W 122°60'0 0.0
2018-Feb-11 22:30N 48°32' W 122°60'0 0.0
2018-Feb-11 22:00N 48°32' W 122°60'0 0.0
2018-Feb-11 21:30N 48°32' W 122°60'0 0.0
2018-Feb-11 20:56N 48°32' W 122°60'0 0.0
2018-Feb-11 20:30N 48°32' W 122°60'0 0.0
2018-Feb-11 19:56N 48°32' W 122°60'  
Track history (hours):
 
Tides and Currents Weather Stations Pressure Air Temp Water Temp Dewpoint Dewpoint Depression Visibility Wind Speed Wind Dir Waves Ship Positions

Pintail

Owner: Pintail Marine Services, Inc, Friday Harbor, WA. More information available from US FCC via Universal Licensing System and Coast Guard Vessel Documentation Center.

Last reported at 2018-Feb-21 19:25 UTC. Time now 2018-Feb-21 19:47 UTC.
Position N 48°32' W 122°60'.

Length 19 m.

Type: Towing. MMSI: 367460260.

Date/timePositionNaut miles runAvg speedWind from/ knotsBaromVisibWave heightAir tempDewpointWater temp
2018-Feb-21 19:25N 48°32' W 122°60'0 0.2
2018-Feb-21 18:55N 48°32' W 123°00'1 1.8
2018-Feb-21 18:30N 48°32' W 122°59'3 6.0
2018-Feb-21 18:00N 48°33' W 122°55'3 5.2
2018-Feb-21 17:28N 48°33' W 122°51'3 6.2
2018-Feb-21 17:00N 48°32' W 122°48'6 6.2
2018-Feb-21 16:02N 48°31' W 122°38'0 6.2
2018-Feb-21 15:59N 48°31' W 122°38'1 2.1
2018-Feb-21 15:26N 48°31' W 122°36'0 0.0
2018-Feb-21 14:56N 48°31' W 122°36'0 0.0
2018-Feb-21 14:26N 48°31' W 122°36'3 5.7
2018-Feb-21 13:59N 48°31' W 122°40'4 6.8
2018-Feb-21 13:24N 48°31' W 122°46'2 5.9
2018-Feb-21 13:00N 48°32' W 122°50'3 6.4
2018-Feb-21 12:30N 48°34' W 122°53'3 6.9
2018-Feb-21 12:00N 48°32' W 122°57'2 3.7
2018-Feb-21 11:28N 48°32' W 122°60'0 0.0
2018-Feb-21 10:59N 48°32' W 122°60'0 0.0
2018-Feb-21 10:26N 48°32' W 122°60'0 0.0
2018-Feb-21 09:59N 48°32' W 122°60'0 0.0
2018-Feb-21 09:29N 48°32' W 122°60'0 0.0
2018-Feb-21 08:59N 48°32' W 122°60'0 0.0
2018-Feb-21 08:28N 48°32' W 122°60'0 0.0
2018-Feb-21 07:58N 48°32' W 122°60'0 0.0
2018-Feb-21 07:28N 48°32' W 122°60'0 0.0
2018-Feb-21 06:58N 48°32' W 122°60'0 0.0
2018-Feb-21 06:29N 48°32' W 122°60'0 0.0
2018-Feb-21 05:55N 48°32' W 122°60'0 0.0
2018-Feb-21 05:28N 48°32' W 122°60'0 0.0
2018-Feb-21 04:58N 48°32' W 122°60'0 0.0
2018-Feb-21 04:28N 48°32' W 122°60'0 0.0
2018-Feb-21 03:55N 48°32' W 122°60'0 0.0
2018-Feb-21 03:28N 48°32' W 122°60'0 0.0
2018-Feb-21 02:58N 48°32' W 122°60'0 0.0
2018-Feb-21 02:25N 48°32' W 122°60'0 0.0
2018-Feb-21 01:55N 48°32' W 122°60'0 0.0
2018-Feb-21 01:26N 48°32' W 122°60'0 0.0
2018-Feb-21 00:56N 48°32' W 122°60'0 0.0
2018-Feb-21 00:29N 48°32' W 122°60'0 0.0
2018-Feb-20 23:59N 48°32' W 122°60'0 0.0
2018-Feb-20 23:30N 48°32' W 122°60'1 1.1
2018-Feb-20 23:00N 48°32' W 122°60'5 5.3
2018-Feb-20 22:02N 48°37' W 123°00'0 0.0
2018-Feb-20 21:50N 48°37' W 123°00'0 0.7
2018-Feb-20 21:08N 48°37' W 123°00'0 0.1
2018-Feb-20 17:03N 48°37' W 123°00'0 1.1
2018-Feb-20 16:59N 48°37' W 123°00'3 6.0
2018-Feb-20 16:25N 48°34' W 123°01'2 5.2
2018-Feb-20 15:57N 48°32' W 123°00'0 0.2
2018-Feb-20 15:28N 48°32' W 122°60'0 0.0
2018-Feb-20 14:58N 48°32' W 122°60'0 0.0
2018-Feb-20 14:28N 48°32' W 122°60'0 0.0
2018-Feb-20 13:58N 48°32' W 122°60'0 0.0
2018-Feb-20 13:28N 48°32' W 122°60'0 0.0
2018-Feb-20 12:58N 48°32' W 122°60'0 0.0
2018-Feb-20 12:28N 48°32' W 122°60'0 0.0
2018-Feb-20 11:49N 48°32' W 122°60'0 0.0
2018-Feb-20 11:28N 48°32' W 122°60'0 0.0
2018-Feb-20 10:58N 48°32' W 122°60'0 0.0
2018-Feb-20 10:28N 48°32' W 122°60'0 0.0
2018-Feb-20 09:58N 48°32' W 122°60'0 0.0
2018-Feb-20 09:28N 48°32' W 122°60'0 0.0
2018-Feb-20 08:58N 48°32' W 122°60'0 0.0
2018-Feb-20 08:28N 48°32' W 122°60'0 0.0
2018-Feb-20 07:58N 48°32' W 122°60'0 0.0
2018-Feb-20 07:28N 48°32' W 122°60'0 0.0
2018-Feb-20 06:58N 48°32' W 122°60'0 0.0
2018-Feb-20 06:25N 48°32' W 122°60'0 0.0
2018-Feb-20 05:58N 48°32' W 122°60'0 0.0
2018-Feb-20 05:28N 48°32' W 122°60'0 0.0
2018-Feb-20 04:58N 48°32' W 122°60'0 0.0
2018-Feb-20 04:28N 48°32' W 122°60'0 0.0
2018-Feb-20 03:58N 48°32' W 122°60'0 0.0
2018-Feb-20 03:28N 48°32' W 122°60'0 0.0
2018-Feb-20 02:58N 48°32' W 122°60'0 0.0
2018-Feb-20 02:28N 48°32' W 122°60'0 0.0
2018-Feb-20 01:58N 48°32' W 122°60'0 0.0
2018-Feb-20 01:28N 48°32' W 122°60'0 0.0
2018-Feb-20 00:58N 48°32' W 122°60'0 0.0
2018-Feb-20 00:28N 48°32' W 122°60'0 0.0
2018-Feb-19 23:58N 48°32' W 122°60'0 0.0
2018-Feb-19 23:22N 48°32' W 122°60'0 0.0
2018-Feb-19 22:55N 48°32' W 122°60'0 0.0
2018-Feb-19 22:25N 48°32' W 122°60'0 0.0
2018-Feb-19 21:58N 48°32' W 122°60'0 0.0
2018-Feb-19 21:16N 48°32' W 122°60'0 0.0
2018-Feb-19 20:58N 48°32' W 122°60'0 0.0
2018-Feb-19 20:22N 48°32' W 122°60'0 0.0
2018-Feb-19 19:58N 48°32' W 122°60'0 0.0
2018-Feb-19 19:28N 48°32' W 122°60'0 0.0
2018-Feb-19 18:58N 48°32' W 122°60'0 0.0
2018-Feb-19 18:28N 48°32' W 122°60'0 0.0
2018-Feb-19 17:58N 48°32' W 122°60'0 0.0
2018-Feb-19 17:28N 48°32' W 122°60'0 0.0
2018-Feb-19 16:58N 48°32' W 122°60'0 0.0
2018-Feb-19 16:28N 48°32' W 122°60'0 0.0
2018-Feb-19 15:58N 48°32' W 122°60'0 0.0
2018-Feb-19 15:28N 48°32' W 122°60'0 0.0
2018-Feb-19 14:58N 48°32' W 122°60'0 0.0
2018-Feb-19 14:19N 48°32' W 122°60'0 0.0
2018-Feb-19 13:58N 48°32' W 122°60'0 0.0
2018-Feb-19 13:28N 48°32' W 122°60'0 0.0
2018-Feb-19 12:58N 48°32' W 122°60'0 0.0
2018-Feb-19 12:28N 48°32' W 122°60'0 0.0
2018-Feb-19 11:58N 48°32' W 122°60'0 0.0
2018-Feb-19 11:28N 48°32' W 122°60'0 0.0
2018-Feb-19 10:58N 48°32' W 122°60'0 0.0
2018-Feb-19 10:28N 48°32' W 122°60'0 0.0
2018-Feb-19 09:58N 48°32' W 122°60'0 0.0
2018-Feb-19 09:28N 48°32' W 122°60'0 0.0
2018-Feb-19 08:56N 48°32' W 122°60'0 0.0
2018-Feb-19 08:23N 48°32' W 122°60'0 0.0
2018-Feb-19 07:56N 48°32' W 122°60'0 0.0
2018-Feb-19 07:23N 48°32' W 122°60'0 0.0
2018-Feb-19 06:59N 48°32' W 122°60'0 0.0
2018-Feb-19 06:29N 48°32' W 122°60'0 0.0
2018-Feb-19 05:47N 48°32' W 122°60'0 0.0
2018-Feb-19 05:26N 48°32' W 122°60'0 0.0
2018-Feb-19 04:59N 48°32' W 122°60'0 0.0
2018-Feb-19 04:29N 48°32' W 122°60'0 0.0
2018-Feb-19 03:56N 48°32' W 122°60'0 0.0
2018-Feb-19 03:29N 48°32' W 122°60'0 0.0
2018-Feb-19 02:59N 48°32' W 122°60'0 0.0
2018-Feb-19 02:26N 48°32' W 122°60'0 0.0
2018-Feb-19 01:56N 48°32' W 122°60'0 0.0
2018-Feb-19 01:29N 48°32' W 122°60'0 0.0
2018-Feb-19 00:59N 48°32' W 122°60'0 0.0
2018-Feb-19 00:23N 48°32' W 122°60'0 0.0
2018-Feb-18 23:56N 48°32' W 122°60'0 0.0
2018-Feb-18 23:29N 48°32' W 122°60'0 0.0
2018-Feb-18 22:59N 48°32' W 122°60'0 0.0
2018-Feb-18 22:29N 48°32' W 122°60'0 0.0
2018-Feb-18 21:59N 48°32' W 122°60'0 0.0
2018-Feb-18 21:29N 48°32' W 122°60'0 0.0
2018-Feb-18 20:59N 48°32' W 122°60'0 0.0
2018-Feb-18 20:29N 48°32' W 122°60'0 0.0
2018-Feb-18 19:59N 48°32' W 122°60'0 0.0
2018-Feb-18 19:29N 48°32' W 122°60'0 0.0
2018-Feb-18 18:59N 48°32' W 122°60'0 0.0
2018-Feb-18 18:29N 48°32' W 122°60'0 0.0
2018-Feb-18 17:59N 48°32' W 122°60'0 0.0
2018-Feb-18 17:29N 48°32' W 122°60'0 0.0
2018-Feb-18 16:59N 48°32' W 122°60'0 0.0
2018-Feb-18 16:29N 48°32' W 122°60'0 0.0
2018-Feb-18 15:59N 48°32' W 122°60'0 0.0
2018-Feb-18 15:29N 48°32' W 122°60'0 0.0
2018-Feb-18 14:59N 48°32' W 122°60'0 0.0
2018-Feb-18 14:29N 48°32' W 122°60'0 0.0
2018-Feb-18 13:59N 48°32' W 122°60'0 0.0
2018-Feb-18 13:29N 48°32' W 122°60'0 0.0
2018-Feb-18 12:59N 48°32' W 122°60'0 0.0
2018-Feb-18 12:29N 48°32' W 122°60'0 0.0
2018-Feb-18 11:59N 48°32' W 122°60'0 0.0
2018-Feb-18 11:29N 48°32' W 122°60'0 0.0
2018-Feb-18 10:59N 48°32' W 122°60'0 0.0
2018-Feb-18 10:29N 48°32' W 122°60'0 0.0
2018-Feb-18 09:59N 48°32' W 122°60'0 0.0
2018-Feb-18 09:29N 48°32' W 122°60'0 0.0
2018-Feb-18 08:59N 48°32' W 122°60'0 0.0
2018-Feb-18 08:29N 48°32' W 122°60'0 0.0
2018-Feb-18 07:59N 48°32' W 122°60'0 0.0
2018-Feb-18 07:29N 48°32' W 122°60'0 0.0
2018-Feb-18 06:59N 48°32' W 122°60'0 0.0
2018-Feb-18 06:29N 48°32' W 122°60'0 0.0
2018-Feb-18 05:59N 48°32' W 122°60'0 0.0
2018-Feb-18 05:29N 48°32' W 122°60'0 0.0
2018-Feb-18 04:59N 48°32' W 122°60'0 0.0
2018-Feb-18 04:29N 48°32' W 122°60'0 0.0
2018-Feb-18 03:59N 48°32' W 122°60'0 0.0
2018-Feb-18 03:29N 48°32' W 122°60'0 0.0
2018-Feb-18 02:59N 48°32' W 122°60'0 0.0
2018-Feb-18 02:26N 48°32' W 122°60'0 0.0
2018-Feb-18 01:59N 48°32' W 122°60'0 0.0
2018-Feb-18 01:29N 48°32' W 122°60'0 0.0
2018-Feb-18 00:59N 48°32' W 122°60'0 0.0
2018-Feb-18 00:29N 48°32' W 122°60'0 0.0
2018-Feb-17 23:59N 48°32' W 122°60'0 0.0
2018-Feb-17 23:29N 48°32' W 122°60'0 0.0
2018-Feb-17 22:59N 48°32' W 122°60'0 0.0
2018-Feb-17 22:29N 48°32' W 122°60'0 0.0
2018-Feb-17 21:59N 48°32' W 122°60'0 0.0
2018-Feb-17 21:29N 48°32' W 122°60'0 0.0
2018-Feb-17 20:59N 48°32' W 122°60'0 0.0
2018-Feb-17 20:29N 48°32' W 122°60'0 0.0
2018-Feb-17 19:59N 48°32' W 122°60'0 0.0
2018-Feb-17 19:29N 48°32' W 122°60'0 0.0
2018-Feb-17 18:50N 48°32' W 122°60'0 0.0
2018-Feb-17 18:29N 48°32' W 122°60'0 0.0
2018-Feb-17 17:59N 48°32' W 122°60'0 0.0
2018-Feb-17 17:29N 48°32' W 122°60'0 0.0
2018-Feb-17 16:59N 48°32' W 122°60'0 0.0
2018-Feb-17 16:26N 48°32' W 122°60'0 0.0
2018-Feb-17 15:59N 48°32' W 122°60'0 0.0
2018-Feb-17 15:29N 48°32' W 122°60'0 0.0
2018-Feb-17 14:59N 48°32' W 122°60'0 0.0
2018-Feb-17 14:29N 48°32' W 122°60'0 0.0
2018-Feb-17 13:59N 48°32' W 122°60'0 0.0
2018-Feb-17 13:29N 48°32' W 122°60'0 0.0
2018-Feb-17 12:59N 48°32' W 122°60'0 0.0
2018-Feb-17 12:29N 48°32' W 122°60'0 0.0
2018-Feb-17 11:59N 48°32' W 122°60'0 0.0
2018-Feb-17 11:29N 48°32' W 122°60'0 0.0
2018-Feb-17 10:59N 48°32' W 122°60'0 0.0
2018-Feb-17 10:29N 48°32' W 122°60'0 0.0
2018-Feb-17 09:53N 48°32' W 122°60'0 0.0
2018-Feb-17 09:29N 48°32' W 122°60'0 0.0
2018-Feb-17 08:59N 48°32' W 122°60'0 0.0
2018-Feb-17 08:29N 48°32' W 122°60'0 0.0
2018-Feb-17 07:59N 48°32' W 122°60'0 0.0
2018-Feb-17 07:29N 48°32' W 122°60'0 0.0
2018-Feb-17 06:59N 48°32' W 122°60'0 0.0
2018-Feb-17 06:29N 48°32' W 122°60'0 0.0
2018-Feb-17 05:59N 48°32' W 122°60'0 0.0
2018-Feb-17 05:29N 48°32' W 122°60'0 0.0
2018-Feb-17 04:59N 48°32' W 122°60'0 0.0
2018-Feb-17 04:29N 48°32' W 122°60'0 0.0
2018-Feb-17 03:59N 48°32' W 122°60'0 0.0
2018-Feb-17 03:29N 48°32' W 122°60'0 0.0
2018-Feb-17 02:59N 48°32' W 122°60'0 0.0
2018-Feb-17 02:29N 48°32' W 122°60'0 0.0
2018-Feb-17 01:59N 48°32' W 122°60'0 0.0
2018-Feb-17 01:29N 48°32' W 122°60'0 0.0
2018-Feb-17 00:59N 48°32' W 122°60'0 0.0
2018-Feb-17 00:29N 48°32' W 122°60'0 0.0
2018-Feb-16 23:59N 48°32' W 122°60'0 0.0
2018-Feb-16 23:29N 48°32' W 122°60'0 0.0
2018-Feb-16 22:56N 48°32' W 122°60'0 0.0
2018-Feb-16 22:29N 48°32' W 122°60'0 0.0
2018-Feb-16 21:59N 48°32' W 122°60'0 0.0
2018-Feb-16 21:29N 48°32' W 122°60'0 0.0
2018-Feb-16 21:00N 48°32' W 122°60'1 2.1
2018-Feb-16 20:30N 48°32' W 122°59'3 6.0
2018-Feb-16 20:00N 48°34' W 122°55'2 4.9
2018-Feb-16 19:30N 48°33' W 122°51'3 5.5
2018-Feb-16 18:59N 48°32' W 122°47'3 6.2
2018-Feb-16 18:28N 48°32' W 122°42'3 7.4
2018-Feb-16 18:00N 48°31' W 122°37'1 2.1
2018-Feb-16 17:30N 48°31' W 122°36'0 0.8
2018-Feb-16 16:59N 48°31' W 122°36'0 0.0
2018-Feb-16 16:23N 48°31' W 122°36'0 0.0
2018-Feb-16 15:59N 48°31' W 122°36'0 0.0
2018-Feb-16 15:26N 48°31' W 122°36'0 0.0
2018-Feb-16 14:56N 48°31' W 122°36'0 0.0
2018-Feb-16 14:29N 48°31' W 122°36'0 0.0
2018-Feb-16 13:59N 48°31' W 122°36'0 0.0
2018-Feb-16 13:29N 48°31' W 122°36'0 0.0
2018-Feb-16 12:53N 48°31' W 122°36'0 0.0
2018-Feb-16 12:29N 48°31' W 122°36'0 0.0
2018-Feb-16 11:59N 48°31' W 122°36'0 0.0
2018-Feb-16 11:29N 48°31' W 122°36'0 0.0
2018-Feb-16 10:59N 48°31' W 122°36'0 0.0
2018-Feb-16 10:23N 48°31' W 122°36'0 0.0
2018-Feb-16 09:59N 48°31' W 122°36'0 0.0
2018-Feb-16 09:29N 48°31' W 122°36'0 0.0
2018-Feb-16 08:59N 48°31' W 122°36'0 0.0
2018-Feb-16 08:29N 48°31' W 122°36'0 0.0
2018-Feb-16 07:59N 48°31' W 122°36'0 0.0
2018-Feb-16 07:29N 48°31' W 122°36'0 0.0
2018-Feb-16 06:59N 48°31' W 122°36'0 0.0
2018-Feb-16 06:29N 48°31' W 122°36'0 0.0
2018-Feb-16 05:53N 48°31' W 122°36'0 0.0
2018-Feb-16 05:29N 48°31' W 122°36'0 0.0
2018-Feb-16 04:53N 48°31' W 122°36'0 0.0
2018-Feb-16 04:29N 48°31' W 122°36'0 0.0
2018-Feb-16 03:59N 48°31' W 122°36'0 0.0
2018-Feb-16 03:23N 48°31' W 122°36'0 0.0
2018-Feb-16 02:53N 48°31' W 122°36'0 0.0
2018-Feb-16 02:29N 48°31' W 122°36'0 0.0
2018-Feb-16 01:59N 48°31' W 122°36'0 0.0
2018-Feb-16 01:23N 48°31' W 122°36'0 0.0
2018-Feb-16 00:47N 48°31' W 122°36'0 0.0
2018-Feb-16 00:29N 48°31' W 122°36'0 0.0
2018-Feb-15 23:47N 48°31' W 122°36'1 1.3
2018-Feb-15 23:19N 48°31' W 122°36'4 7.0
2018-Feb-15 22:44N 48°32' W 122°42'3 6.5
2018-Feb-15 22:19N 48°32' W 122°47'2 6.5
2018-Feb-15 22:00N 48°32' W 122°50'3 6.4
2018-Feb-15 21:30N 48°34' W 122°53'4 6.9
2018-Feb-15 20:59N 48°32' W 122°58'2 3.3
2018-Feb-15 20:29N 48°32' W 123°00'0 0.2
2018-Feb-15 19:59N 48°32' W 122°60'0 0.0
2018-Feb-15 19:30N 48°32' W 122°60'0 0.0
2018-Feb-15 19:00N 48°32' W 122°60'0 0.0
2018-Feb-15 18:30N 48°32' W 122°60'0 0.5
2018-Feb-15 18:00N 48°32' W 122°60'3 6.0
2018-Feb-15 17:30N 48°33' W 122°56'3 5.5
2018-Feb-15 17:00N 48°34' W 122°52'3 6.0
2018-Feb-15 16:30N 48°32' W 122°48'3 6.7
2018-Feb-15 16:00N 48°32' W 122°43'4 7.1
2018-Feb-15 15:28N 48°31' W 122°37'1 1.1
2018-Feb-15 15:00N 48°31' W 122°36'2 0.4
2018-Feb-15 11:08N 48°31' W 122°39'0 0.0
2018-Feb-15 05:38N 48°31' W 122°39'0 0.0
2018-Feb-15 05:20N 48°31' W 122°39'0 0.0
2018-Feb-15 04:56N 48°31' W 122°39'0 0.0
2018-Feb-15 04:26N 48°31' W 122°39'0 0.0
2018-Feb-15 03:55N 48°31' W 122°39'0 0.0
2018-Feb-15 03:25N 48°31' W 122°39'0 0.4
2018-Feb-15 02:18N 48°31' W 122°39'3 5.2
2018-Feb-15 01:45N 48°32' W 122°43'2 6.5
2018-Feb-15 01:30N 48°32' W 122°46'3 6.6
2018-Feb-15 01:00N 48°33' W 122°51'3 5.3
2018-Feb-15 00:30N 48°34' W 122°54'3 6.6
2018-Feb-15 00:00N 48°32' W 122°59'1 1.9
2018-Feb-14 23:29N 48°32' W 122°60'0 0.0
2018-Feb-14 22:59N 48°32' W 122°60'0 0.0
2018-Feb-14 22:29N 48°32' W 122°60'0 0.0
2018-Feb-14 21:59N 48°32' W 122°60'0 0.0
2018-Feb-14 21:29N 48°32' W 122°60'0 0.0
2018-Feb-14 20:59N 48°32' W 122°60'0 0.0
2018-Feb-14 20:29N 48°32' W 122°60'0 0.0
2018-Feb-14 19:59N 48°32' W 122°60'0 0.0
2018-Feb-14 19:29N 48°32' W 122°60'0 0.0
2018-Feb-14 18:56N 48°32' W 122°60'0 0.0
2018-Feb-14 18:29N 48°32' W 122°60'0 0.0
2018-Feb-14 17:59N 48°32' W 122°60'0 0.0
2018-Feb-14 17:29N 48°32' W 122°60'0 0.0
2018-Feb-14 16:59N 48°32' W 122°60'0 0.0
2018-Feb-14 16:29N 48°32' W 122°60'0 0.0
2018-Feb-14 15:59N 48°32' W 122°60'0 0.0
2018-Feb-14 15:30N 48°32' W 122°60'0 0.0
2018-Feb-14 14:59N 48°32' W 122°60'0 0.0
2018-Feb-14 14:30N 48°32' W 122°60'0 0.0
2018-Feb-14 13:59N 48°32' W 122°60'0 0.0
2018-Feb-14 13:29N 48°32' W 122°60'0 0.0
2018-Feb-14 12:59N 48°32' W 122°60'0 0.0
2018-Feb-14 12:29N 48°32' W 122°60'0 0.0
2018-Feb-14 11:59N 48°32' W 122°60'0 0.0
2018-Feb-14 11:29N 48°32' W 122°60'0 0.0
2018-Feb-14 10:59N 48°32' W 122°60'0 0.0
2018-Feb-14 10:29N 48°32' W 122°60'0 0.0
2018-Feb-14 09:56N 48°32' W 122°60'0 0.0
2018-Feb-14 09:29N 48°32' W 122°60'0 0.0
2018-Feb-14 08:59N 48°32' W 122°60'0 0.0
2018-Feb-14 08:29N 48°32' W 122°60'0 0.0
2018-Feb-14 08:00N 48°32' W 122°60'0 0.0
2018-Feb-14 07:30N 48°32' W 122°60'0 0.0
2018-Feb-14 07:00N 48°32' W 122°60'0 0.0
2018-Feb-14 06:29N 48°32' W 122°60'0 0.0
2018-Feb-14 05:59N 48°32' W 122°60'0 0.0
2018-Feb-14 05:29N 48°32' W 122°60'0 0.0
2018-Feb-14 04:59N 48°32' W 122°60'0 0.0
2018-Feb-14 04:29N 48°32' W 122°60'0 0.0
2018-Feb-14 03:56N 48°32' W 122°60'0 0.0
2018-Feb-14 03:26N 48°32' W 122°60'0 0.0
2018-Feb-14 02:59N 48°32' W 122°60'0 0.0
2018-Feb-14 02:29N 48°32' W 122°60'0 0.0
2018-Feb-14 01:59N 48°32' W 122°60'0 0.0
2018-Feb-14 01:29N 48°32' W 122°60'0 0.0
2018-Feb-14 00:59N 48°32' W 122°60'0 0.0
2018-Feb-14 00:30N 48°32' W 122°60'0 0.1
2018-Feb-14 00:00N 48°32' W 122°60'1 0.9
2018-Feb-13 23:20N 48°32' W 123°01'0 0.0
2018-Feb-13 23:00N 48°32' W 123°01'1 1.2
2018-Feb-13 22:28N 48°32' W 123°00'1 1.3
2018-Feb-13 21:59N 48°32' W 123°01'0 0.0
2018-Feb-13 21:29N 48°32' W 123°01'0 0.0
2018-Feb-13 20:59N 48°32' W 123°01'1 1.1
2018-Feb-13 20:30N 48°32' W 122°60'0 0.3
2018-Feb-13 20:00N 48°32' W 122°60'0 0.1
2018-Feb-13 19:29N 48°32' W 122°60'0 0.0
2018-Feb-13 18:59N 48°32' W 122°60'0 0.0
2018-Feb-13 18:29N 48°32' W 122°60'0 0.0
2018-Feb-13 17:59N 48°32' W 122°60'0 0.0
2018-Feb-13 17:29N 48°32' W 122°60'0 0.0
2018-Feb-13 16:59N 48°32' W 122°60'0 0.0
2018-Feb-13 16:29N 48°32' W 122°60'0 0.0
2018-Feb-13 15:59N 48°32' W 122°60'0 0.0
2018-Feb-13 15:29N 48°32' W 122°60'0 0.0
2018-Feb-13 14:59N 48°32' W 122°60'0 0.0
2018-Feb-13 14:29N 48°32' W 122°60'0 0.0
2018-Feb-13 13:59N 48°32' W 122°60'0 0.0
2018-Feb-13 13:29N 48°32' W 122°60'0 0.0
2018-Feb-13 12:59N 48°32' W 122°60'0 0.0
2018-Feb-13 12:29N 48°32' W 122°60'0 0.0
2018-Feb-13 11:59N 48°32' W 122°60'0 0.0
2018-Feb-13 11:29N 48°32' W 122°60'0 0.0
2018-Feb-13 10:59N 48°32' W 122°60'0 0.0
2018-Feb-13 10:29N 48°32' W 122°60'0 0.0
2018-Feb-13 09:59N 48°32' W 122°60'0 0.0
2018-Feb-13 09:29N 48°32' W 122°60'0 0.0
2018-Feb-13 08:59N 48°32' W 122°60'0 0.0
2018-Feb-13 08:23N 48°32' W 122°60'0 0.0
2018-Feb-13 07:59N 48°32' W 122°60'0 0.0
2018-Feb-13 07:29N 48°32' W 122°60'0 0.0
2018-Feb-13 06:59N 48°32' W 122°60'0 0.0
2018-Feb-13 06:30N 48°32' W 122°60'0 0.0
2018-Feb-13 05:59N 48°32' W 122°60'0 0.0
2018-Feb-13 05:30N 48°32' W 122°60'0 0.0
2018-Feb-13 04:59N 48°32' W 122°60'0 0.0
2018-Feb-13 04:29N 48°32' W 122°60'0 0.0
2018-Feb-13 03:59N 48°32' W 122°60'0 0.0
2018-Feb-13 03:29N 48°32' W 122°60'0 0.0
2018-Feb-13 02:59N 48°32' W 122°60'0 0.0
2018-Feb-13 02:29N 48°32' W 122°60'0 0.0
2018-Feb-13 01:59N 48°32' W 122°60'0 0.0
2018-Feb-13 01:29N 48°32' W 122°60'0 0.0
2018-Feb-13 00:53N 48°32' W 122°60'0 0.0
2018-Feb-13 00:29N 48°32' W 122°60'0 0.0
2018-Feb-12 23:56N 48°32' W 122°60'0 0.0
2018-Feb-12 23:29N 48°32' W 122°60'0 0.0
2018-Feb-12 22:59N 48°32' W 122°60'0 0.0
2018-Feb-12 22:28N 48°32' W 122°60'0 0.0
2018-Feb-12 21:58N 48°32' W 122°60'0 0.0
2018-Feb-12 21:29N 48°32' W 122°60'0 0.0
2018-Feb-12 20:58N 48°32' W 122°60'0 0.2
2018-Feb-12 20:29N 48°32' W 123°00'3 5.2
2018-Feb-12 20:01N 48°33' W 122°57'3 6.1
2018-Feb-12 19:30N 48°34' W 122°53'3 6.6
2018-Feb-12 19:00N 48°32' W 122°49'3 6.5
2018-Feb-12 18:28N 48°32' W 122°44'4 7.0
2018-Feb-12 17:56N 48°31' W 122°38'1 2.1
2018-Feb-12 17:21N 48°31' W 122°36'2 4.4
2018-Feb-12 16:59N 48°32' W 122°39'3 5.8
2018-Feb-12 16:30N 48°32' W 122°43'4 7.2
2018-Feb-12 16:00N 48°35' W 122°46'2 3.2
2018-Feb-12 15:18N 48°35' W 122°50'2 5.6
2018-Feb-12 15:00N 48°35' W 122°52'3 5.6
2018-Feb-12 14:30N 48°33' W 122°56'3 6.2
2018-Feb-12 14:00N 48°32' W 122°60'0 0.1
2018-Feb-12 13:29N 48°32' W 122°60'0 0.0
2018-Feb-12 12:56N 48°32' W 122°60'0 0.0
2018-Feb-12 12:29N 48°32' W 122°60'0 0.0
2018-Feb-12 11:59N 48°32' W 122°60'0 0.0
2018-Feb-12 11:29N 48°32' W 122°60'0 0.0
2018-Feb-12 10:59N 48°32' W 122°60'0 0.0
2018-Feb-12 10:29N 48°32' W 122°60'0 0.0
2018-Feb-12 09:59N 48°32' W 122°60'0 0.0
2018-Feb-12 09:29N 48°32' W 122°60'0 0.0
2018-Feb-12 08:56N 48°32' W 122°60'0 0.0
2018-Feb-12 08:29N 48°32' W 122°60'0 0.0
2018-Feb-12 07:59N 48°32' W 122°60'0 0.0
2018-Feb-12 07:23N 48°32' W 122°60'0 0.0
2018-Feb-12 07:00N 48°32' W 122°60'0 0.0
2018-Feb-12 06:26N 48°32' W 122°60'0 0.0
2018-Feb-12 06:00N 48°32' W 122°60'0 0.0
2018-Feb-12 05:30N 48°32' W 122°60'0 0.0
2018-Feb-12 04:56N 48°32' W 122°60'0 0.0
2018-Feb-12 04:29N 48°32' W 122°60'0 0.0
2018-Feb-12 03:59N 48°32' W 122°60'0 0.0
2018-Feb-12 03:29N 48°32' W 122°60'0 0.0
2018-Feb-12 02:59N 48°32' W 122°60'0 0.0
2018-Feb-12 02:29N 48°32' W 122°60'0 0.0
2018-Feb-12 01:59N 48°32' W 122°60'0 0.0
2018-Feb-12 01:29N 48°32' W 122°60'0 0.0
2018-Feb-12 00:59N 48°32' W 122°60'0 0.0
2018-Feb-12 00:29N 48°32' W 122°60'0 0.0
2018-Feb-11 23:59N 48°32' W 122°60'0 0.0
2018-Feb-11 23:29N 48°32' W 122°60'0 0.0
2018-Feb-11 23:00N 48°32' W 122°60'0 0.0
2018-Feb-11 22:30N 48°32' W 122°60'0 0.0
2018-Feb-11 22:00N 48°32' W 122°60'0 0.0
2018-Feb-11 21:30N 48°32' W 122°60'0 0.0
2018-Feb-11 20:56N 48°32' W 122°60'0 0.0
2018-Feb-11 20:30N 48°32' W 122°60'0 0.0
2018-Feb-11 19:56N 48°32' W 122°60'  

Dump ship's entire track history